Time;durP1;ratioP1;P1;durP2;ratioP2;P2;SDS_P1;SDS_P2;PMS_P1;PMS_P2;Temp;Humidity;BMP_temperature;BMP_pressure;BME280_temperature;BME280_humidity;BME280_pressure;Samples;Min_cycle;Max_cycle;Signal;HPM_P1;HPM_P2
2022/10/17 00:00:41;;;;;;;1.77;1.63;;;14.30;82.90;;;;;;5014902;28;20041;-61
2022/10/17 00:03:07;;;;;;;3.08;1.70;;;14.20;82.70;;;;;;5015734;28;20432;-61
2022/10/17 00:05:33;;;;;;;2.10;1.90;;;14.20;82.70;;;;;;5017534;28;20029;-62
2022/10/17 00:07:58;;;;;;;5.03;2.13;;;14.20;82.70;;;;;;5014601;28;20492;-61
2022/10/17 00:10:24;;;;;;;4.68;2.42;;;14.20;82.70;;;;;;5015686;28;20844;-62
2022/10/17 00:12:51;;;;;;;4.35;2.20;;;14.20;82.90;;;;;;5014755;28;20049;-62
2022/10/17 00:15:19;;;;;;;3.72;2.22;;;14.10;82.90;;;;;;5014161;28;20120;-62
2022/10/17 00:17:44;;;;;;;3.30;2.45;;;14.10;83.10;;;;;;5014996;28;20029;-61
2022/10/17 00:20:11;;;;;;;2.97;2.58;;;14.10;83.00;;;;;;5014999;28;20076;-61
2022/10/17 00:22:37;;;;;;;3.45;2.40;;;14.10;83.10;;;;;;5014202;28;20063;-62
2022/10/17 00:25:03;;;;;;;3.88;2.50;;;14.10;83.10;;;;;;5017663;28;20061;-62
2022/10/17 00:27:28;;;;;;;3.72;2.70;;;14.10;83.00;;;;;;5013658;28;20053;-61
2022/10/17 00:29:54;;;;;;;5.22;2.20;;;14.10;82.80;;;;;;5014513;28;20034;-61
2022/10/17 00:32:20;;;;;;;5.05;2.17;;;14.10;82.70;;;;;;5013352;28;20041;-62
2022/10/17 00:34:46;;;;;;;2.42;1.95;;;14.10;82.50;;;;;;5014623;28;20413;-63
2022/10/17 00:37:12;;;;;;;2.00;1.60;;;14.10;82.20;;;;;;5009392;28;20053;-62
2022/10/17 00:39:37;;;;;;;2.63;1.77;;;14.00;82.00;;;;;;5014017;28;20176;-62
2022/10/17 00:42:03;;;;;;;2.22;1.70;;;14.00;82.10;;;;;;5014371;28;20072;-62
2022/10/17 00:44:28;;;;;;;2.85;1.80;;;13.90;82.20;;;;;;5015836;28;20493;-61
2022/10/17 00:46:55;;;;;;;3.22;1.50;;;13.80;82.30;;;;;;5013513;28;20072;-62
2022/10/17 00:49:23;;;;;;;6.78;1.52;;;13.80;82.40;;;;;;5011389;28;20111;-62
2022/10/17 00:51:53;;;;;;;2.20;1.42;;;13.80;82.40;;;;;;5013942;28;20109;-61
2022/10/17 00:54:24;;;;;;;5.70;1.63;;;13.80;82.40;;;;;;5015256;28;20034;-61
2022/10/17 00:56:50;;;;;;;2.70;1.58;;;13.70;82.40;;;;;;5015412;28;20029;-61
2022/10/17 00:59:19;;;;;;;3.85;1.50;;;13.70;82.50;;;;;;5016075;28;20064;-62
2022/10/17 01:01:55;;;;;;;2.78;1.50;;;13.70;82.40;;;;;;5017306;28;20517;-62
2022/10/17 01:04:20;;;;;;;5.90;1.77;;;13.70;82.30;;;;;;5011271;28;20528;-60
2022/10/17 01:06:46;;;;;;;2.47;1.50;;;13.60;82.00;;;;;;5014158;28;20120;-61
2022/10/17 01:09:11;;;;;;;3.17;1.50;;;13.60;81.90;;;;;;5011901;28;20038;-62
2022/10/17 01:11:51;;;;;;;3.88;1.60;;;13.60;82.00;;;;;;5015269;28;20029;-60
2022/10/17 01:14:35;;;;;;;2.75;2.13;;;13.50;82.10;;;;;;5013937;28;20493;-62
2022/10/17 01:17:27;;;;;;;1.92;1.73;;;13.40;82.20;;;;;;5012499;28;20164;-61
2022/10/17 01:20:04;;;;;;;3.63;1.83;;;13.40;82.50;;;;;;5014667;28;20040;-61
2022/10/17 01:23:00;;;;;;;3.03;1.70;;;13.40;82.40;;;;;;5013740;28;20026;-61
2022/10/17 01:25:25;;;;;;;2.25;1.45;;;13.30;83.10;;;;;;5015324;28;20041;-62
2022/10/17 01:28:04;;;;;;;2.63;1.60;;;13.30;82.80;;;;;;5013946;28;20111;-60
2022/10/17 01:30:42;;;;;;;16.70;2.10;;;13.30;83.20;;;;;;5014649;28;20764;-61
2022/10/17 01:33:12;;;;;;;6.82;2.53;;;13.20;83.90;;;;;;5013030;28;20041;-61
2022/10/17 01:35:53;;;;;;;6.97;2.47;;;13.20;84.20;;;;;;5015651;28;20057;-59
2022/10/17 01:38:33;;;;;;;5.28;1.50;;;13.10;84.60;;;;;;5014615;28;20121;-61
2022/10/17 01:41:01;;;;;;;3.65;1.55;;;13.20;84.80;;;;;;5013882;28;20029;-61
2022/10/17 01:43:53;;;;;;;9.25;1.83;;;13.10;84.50;;;;;;5014392;28;20042;-61
2022/10/17 01:46:26;;;;;;;4.07;1.38;;;13.10;84.80;;;;;;5013052;28;20030;-61
2022/10/17 01:48:52;;;;;;;4.80;1.48;;;13.10;84.50;;;;;;5012311;28;20496;-60
2022/10/17 01:51:23;;;;;;;20.25;2.50;;;13.20;84.50;;;;;;5015756;28;20034;-62
2022/10/17 01:53:55;;;;;;;4.35;2.30;;;13.20;84.60;;;;;;5012704;28;20029;-62
2022/10/17 01:56:24;;;;;;;8.25;2.38;;;13.20;84.60;;;;;;5015528;28;20046;-61
2022/10/17 01:58:55;;;;;;;6.47;1.98;;;13.20;84.60;;;;;;5000376;28;20037;-61
2022/10/17 02:01:21;;;;;;;9.70;2.30;;;13.20;84.60;;;;;;5016705;28;20033;-61
2022/10/17 02:03:49;;;;;;;17.98;2.13;;;13.30;84.50;;;;;;5014472;28;20041;-60
2022/10/17 02:06:15;;;;;;;4.38;1.95;;;13.20;84.50;;;;;;5015016;28;20061;-62
2022/10/17 02:08:50;;;;;;;6.85;1.70;;;13.30;84.50;;;;;;5011436;28;20120;-61
2022/10/17 02:11:19;;;;;;;5.72;1.83;;;13.30;84.50;;;;;;5013780;28;20026;-61
2022/10/17 02:14:03;;;;;;;4.35;1.95;;;13.30;84.10;;;;;;5016909;28;20038;-61
2022/10/17 02:16:42;;;;;;;2.90;1.73;;;13.30;83.90;;;;;;5016240;28;20079;-62
2022/10/17 02:19:29;;;;;;;3.08;1.95;;;13.30;84.10;;;;;;5015877;28;20424;-60
2022/10/17 02:22:09;;;;;;;1.55;1.45;;;13.20;84.00;;;;;;5014658;28;20038;-61
2022/10/17 02:24:51;;;;;;;4.85;1.45;;;13.10;83.80;;;;;;5015350;28;20064;-61
2022/10/17 02:27:29;;;;;;;2.75;2.00;;;13.10;84.10;;;;;;5018198;28;20034;-62
2022/10/17 02:30:10;;;;;;;3.65;1.50;;;13.10;84.10;;;;;;5017340;28;20030;-62
2022/10/17 02:32:43;;;;;;;6.00;1.75;;;13.00;84.20;;;;;;5015820;28;20647;-62
2022/10/17 02:35:13;;;;;;;4.88;1.90;;;13.00;84.30;;;;;;5017698;28;20139;-62
2022/10/17 02:37:42;;;;;;;9.07;1.65;;;13.00;84.30;;;;;;5016393;28;20584;-62
2022/10/17 02:40:10;;;;;;;4.30;1.70;;;13.00;84.30;;;;;;5020050;28;20516;-60
2022/10/17 02:42:36;;;;;;;4.80;1.90;;;13.00;84.10;;;;;;5017666;28;20045;-61
2022/10/17 02:45:03;;;;;;;5.00;2.15;;;12.90;84.10;;;;;;5018122;28;20037;-60
2022/10/17 02:47:41;;;;;;;4.25;2.17;;;13.00;84.30;;;;;;5017375;28;20068;-61
2022/10/17 02:50:07;;;;;;;3.75;2.45;;;13.00;84.30;;;;;;5017608;28;20548;-61
2022/10/17 02:52:42;;;;;;;2.83;1.92;;;12.90;83.80;;;;;;5015509;28;20099;-62
2022/10/17 02:55:13;;;;;;;4.35;1.90;;;12.90;83.70;;;;;;5019466;28;20038;-60
2022/10/17 02:57:47;;;;;;;3.63;1.90;;;12.90;83.90;;;;;;5014136;28;20072;-60
2022/10/17 03:00:15;;;;;;;2.35;1.52;;;12.80;83.80;;;;;;5017095;28;20124;-60
2022/10/17 03:02:46;;;;;;;1.80;1.70;;;12.80;83.70;;;;;;5014880;28;20612;-60
2022/10/17 03:05:14;;;;;;;2.00;1.63;;;12.80;84.00;;;;;;5016532;28;20121;-60
2022/10/17 03:07:40;;;;;;;5.50;1.90;;;12.80;84.00;;;;;;5015881;28;20033;-62
2022/10/17 03:10:05;;;;;;;3.50;2.15;;;12.70;84.00;;;;;;5016315;28;20064;-61
2022/10/17 03:12:31;;;;;;;2.60;2.10;;;12.70;84.00;;;;;;5015068;28;20026;-62
2022/10/17 03:14:56;;;;;;;3.90;1.80;;;12.70;84.00;;;;;;5016423;28;20029;-61
2022/10/17 03:17:22;;;;;;;2.60;1.70;;;12.70;84.20;;;;;;5015381;28;20047;-61
2022/10/17 03:19:48;;;;;;;2.03;1.73;;;12.60;84.30;;;;;;5015896;28;20045;-60
2022/10/17 03:22:13;;;;;;;3.30;1.77;;;12.60;84.40;;;;;;5016514;28;20076;-58
2022/10/17 03:24:39;;;;;;;4.93;2.28;;;12.60;84.30;;;;;;5015818;28;20026;-60
2022/10/17 03:27:05;;;;;;;2.08;1.70;;;12.60;84.30;;;;;;5014786;28;20354;-62
2022/10/17 03:29:30;;;;;;;1.83;1.60;;;12.60;84.20;;;;;;5014981;28;20046;-61
2022/10/17 03:31:56;;;;;;;1.65;1.50;;;12.60;83.90;;;;;;5016260;28;20034;-62
2022/10/17 03:34:21;;;;;;;1.92;1.40;;;12.60;83.80;;;;;;5015785;28;20647;-61
2022/10/17 03:36:47;;;;;;;1.50;1.40;;;12.60;83.70;;;;;;5014995;28;20033;-61
2022/10/17 03:39:13;;;;;;;1.45;1.30;;;12.60;83.50;;;;;;5017222;28;20414;-61
2022/10/17 03:41:38;;;;;;;2.80;1.50;;;12.60;83.30;;;;;;5017177;28;20046;-62
2022/10/17 03:44:04;;;;;;;1.40;1.30;;;12.50;83.20;;;;;;5018137;28;20559;-62
2022/10/17 03:46:29;;;;;;;1.80;1.70;;;12.50;83.20;;;;;;5014564;28;20125;-62
2022/10/17 03:48:55;;;;;;;2.72;1.65;;;12.40;83.20;;;;;;5013883;28;20093;-58
2022/10/17 03:51:20;;;;;;;2.15;1.77;;;12.40;83.40;;;;;;5016186;28;20049;-60
2022/10/17 03:53:46;;;;;;;4.90;1.83;;;12.40;83.60;;;;;;5013987;28;20034;-59
2022/10/17 03:56:20;;;;;;;3.15;1.45;;;12.30;83.60;;;;;;5017193;28;20048;-62
2022/10/17 03:58:46;;;;;;;2.25;1.58;;;12.30;83.50;;;;;;5014569;28;20053;-62
2022/10/17 04:01:14;;;;;;;3.00;1.70;;;12.30;83.20;;;;;;5016368;28;20038;-61
2022/10/17 04:03:40;;;;;;;4.15;1.58;;;12.30;83.10;;;;;;5015301;28;20042;-62
2022/10/17 04:06:06;;;;;;;6.20;3.40;;;12.30;83.20;;;;;;5016015;28;20034;-62
2022/10/17 04:08:33;;;;;;;4.43;3.00;;;12.20;83.30;;;;;;5017701;28;20033;-61
2022/10/17 04:11:00;;;;;;;9.45;4.95;;;12.20;83.30;;;;;;5016891;28;20030;-61
2022/10/17 04:13:26;;;;;;;8.65;3.28;;;12.20;83.30;;;;;;5016102;28;20109;-59
2022/10/17 04:15:57;;;;;;;3.47;2.33;;;12.20;83.00;;;;;;5015762;28;20052;-61
2022/10/17 04:18:23;;;;;;;4.28;2.17;;;12.20;82.80;;;;;;5014237;28;20038;-60
2022/10/17 04:20:48;;;;;;;2.63;2.42;;;12.10;82.80;;;;;;5015046;28;20539;-62
2022/10/17 04:23:14;;;;;;;3.55;3.25;;;12.10;83.10;;;;;;5013911;28;20042;-62
2022/10/17 04:25:40;;;;;;;6.82;3.67;;;12.10;83.30;;;;;;5014378;28;20043;-61
2022/10/17 04:28:06;;;;;;;5.10;4.28;;;12.00;83.40;;;;;;5011503;28;20045;-60
2022/10/17 04:30:32;;;;;;;5.28;3.70;;;12.00;83.60;;;;;;5001758;28;21101;-61
2022/10/17 04:32:57;;;;;;;6.55;4.65;;;12.00;83.60;;;;;;5005140;28;20045;-59
2022/10/17 04:35:23;;;;;;;6.50;4.43;;;12.00;83.60;;;;;;5012110;28;20052;-62
2022/10/17 04:37:48;;;;;;;5.88;3.85;;;12.00;83.40;;;;;;5010558;28;20639;-61
2022/10/17 04:40:14;;;;;;;7.20;4.00;;;12.00;83.40;;;;;;5013063;28;20033;-61
2022/10/17 04:42:40;;;;;;;4.25;3.83;;;12.00;83.60;;;;;;5013718;28;20469;-60
2022/10/17 04:45:06;;;;;;;4.72;3.30;;;12.00;83.60;;;;;;5015709;28;20124;-60
2022/10/17 04:47:32;;;;;;;4.45;3.13;;;12.00;83.40;;;;;;5011771;28;20049;-62
2022/10/17 04:49:57;;;;;;;8.82;3.60;;;12.00;83.50;;;;;;5015883;28;20026;-62
2022/10/17 04:52:24;;;;;;;5.63;3.35;;;12.00;83.70;;;;;;5014753;28;20077;-62
2022/10/17 04:54:50;;;;;;;3.75;3.05;;;12.00;83.90;;;;;;5015054;28;20433;-62
2022/10/17 04:57:15;;;;;;;5.68;3.10;;;12.00;83.90;;;;;;5014205;28;20045;-60
2022/10/17 04:59:41;;;;;;;5.30;3.00;;;12.00;84.00;;;;;;5015908;28;20026;-62
2022/10/17 05:02:07;;;;;;;5.15;3.88;;;12.00;84.00;;;;;;5015762;28;20049;-62
2022/10/17 05:04:32;;;;;;;7.10;3.95;;;12.00;84.00;;;;;;5014067;28;20513;-60
2022/10/17 05:06:58;;;;;;;4.78;4.28;;;12.00;84.00;;;;;;5013548;28;20025;-61
2022/10/17 05:09:23;;;;;;;6.90;3.78;;;12.00;84.00;;;;;;5014727;28;20059;-62
2022/10/17 05:11:49;;;;;;;7.82;4.55;;;12.00;83.90;;;;;;5015033;28;20405;-62
2022/10/17 05:14:14;;;;;;;8.32;4.18;;;12.00;83.80;;;;;;5014324;28;20068;-62
2022/10/17 05:16:40;;;;;;;4.50;3.72;;;12.00;84.00;;;;;;5014143;28;20490;-62
2022/10/17 05:19:06;;;;;;;6.82;4.40;;;11.90;83.80;;;;;;5013549;28;20080;-61
2022/10/17 05:21:32;;;;;;;5.30;4.50;;;11.90;84.00;;;;;;5014147;28;20413;-62
2022/10/17 05:23:58;;;;;;;6.65;4.95;;;11.90;84.00;;;;;;5013486;28;20053;-61
2022/10/17 05:26:24;;;;;;;11.43;5.75;;;11.90;83.80;;;;;;5010901;28;20042;-62
2022/10/17 05:28:53;;;;;;;6.30;5.22;;;11.80;83.50;;;;;;5014842;28;20114;-60
2022/10/17 05:31:19;;;;;;;7.80;5.03;;;11.80;83.60;;;;;;5012144;28;20041;-61
2022/10/17 05:33:45;;;;;;;11.70;6.13;;;11.80;83.80;;;;;;5015039;28;20376;-61
2022/10/17 05:36:10;;;;;;;13.15;7.30;;;11.80;83.80;;;;;;5013987;28;20041;-61
2022/10/17 05:38:36;;;;;;;13.38;7.05;;;11.80;83.80;;;;;;5013763;28;20087;-62
2022/10/17 05:41:04;;;;;;;16.85;7.20;;;11.80;83.70;;;;;;5015284;28;20029;-62
2022/10/17 05:43:30;;;;;;;15.05;7.43;;;11.70;84.20;;;;;;5013648;28;20064;-61
2022/10/17 05:45:56;;;;;;;11.85;7.35;;;11.70;83.30;;;;;;5014776;28;20095;-62
2022/10/17 05:48:22;;;;;;;11.63;7.35;;;11.70;83.60;;;;;;5013544;28;20038;-61
2022/10/17 05:50:48;;;;;;;8.82;6.28;;;11.60;83.70;;;;;;5014045;28;20115;-61
2022/10/17 05:53:14;;;;;;;11.40;6.15;;;11.60;84.00;;;;;;5013210;28;20080;-60
2022/10/17 05:55:40;;;;;;;9.23;6.18;;;11.60;84.10;;;;;;5016405;28;20041;-61
2022/10/17 05:58:06;;;;;;;10.43;6.68;;;11.70;84.30;;;;;;5013139;28;20044;-61
2022/10/17 06:00:31;;;;;;;10.02;5.80;;;11.70;84.30;;;;;;5014083;28;20489;-62
2022/10/17 06:02:57;;;;;;;12.27;6.30;;;11.70;84.40;;;;;;5014329;28;20029;-61
2022/10/17 06:05:23;;;;;;;8.85;5.95;;;11.70;84.30;;;;;;5014548;28;20034;-62
2022/10/17 06:07:51;;;;;;;10.27;5.72;;;11.70;84.20;;;;;;5014989;28;20049;-62
2022/10/17 06:10:17;;;;;;;8.52;5.40;;;11.70;84.20;;;;;;5016199;28;20269;-62
2022/10/17 06:12:44;;;;;;;8.55;5.65;;;11.70;84.40;;;;;;5011698;28;20125;-60
2022/10/17 06:15:10;;;;;;;7.95;4.93;;;11.70;84.70;;;;;;5014651;28;20045;-61
2022/10/17 06:17:36;;;;;;;10.57;5.22;;;11.60;84.90;;;;;;5012683;28;20040;-61
2022/10/17 06:20:02;;;;;;;8.27;4.97;;;11.70;85.20;;;;;;5014199;28;20096;-62
2022/10/17 06:22:27;;;;;;;15.23;5.05;;;11.70;85.30;;;;;;5011452;28;20057;-61
2022/10/17 06:24:53;;;;;;;13.48;4.63;;;11.70;85.60;;;;;;5014339;28;20425;-62
2022/10/17 06:27:19;;;;;;;10.68;4.78;;;11.80;85.80;;;;;;5014175;28;20069;-58
2022/10/17 06:29:46;;;;;;;9.52;4.38;;;11.80;85.90;;;;;;5015576;28;20467;-59
2022/10/17 06:32:12;;;;;;;10.07;4.57;;;11.80;86.00;;;;;;5013178;28;20041;-61
2022/10/17 06:34:38;;;;;;;8.75;4.43;;;11.80;86.00;;;;;;5013060;28;20091;-61
2022/10/17 06:37:03;;;;;;;6.43;4.32;;;11.90;86.20;;;;;;5012389;28;20540;-61
2022/10/17 06:39:32;;;;;;;9.60;4.40;;;11.90;86.30;;;;;;5012519;28;20053;-59
2022/10/17 06:41:59;;;;;;;7.03;4.55;;;11.90;86.40;;;;;;5014271;28;20068;-61
2022/10/17 06:44:29;;;;;;;9.80;5.57;;;11.90;86.40;;;;;;5012226;28;20543;-61
2022/10/17 06:46:55;;;;;;;9.18;5.65;;;12.00;86.40;;;;;;5013991;28;20507;-58
2022/10/17 06:49:21;;;;;;;9.52;5.82;;;12.00;86.50;;;;;;5015219;28;20038;-61
2022/10/17 06:51:46;;;;;;;11.45;7.03;;;12.00;86.60;;;;;;5013582;28;20393;-62
2022/10/17 06:54:12;;;;;;;12.02;7.38;;;12.10;86.70;;;;;;5011714;28;20133;-62
2022/10/17 06:56:38;;;;;;;7.25;4.88;;;12.10;86.80;;;;;;5011671;28;20033;-62
2022/10/17 06:59:03;;;;;;;8.98;4.30;;;12.20;87.00;;;;;;5008171;28;20038;-62
2022/10/17 07:01:30;;;;;;;5.82;4.00;;;12.20;87.10;;;;;;5017167;28;20043;-62
2022/10/17 07:03:56;;;;;;;5.82;3.70;;;12.20;87.40;;;;;;5017416;28;20038;-63
2022/10/17 07:06:25;;;;;;;9.40;3.50;;;12.30;87.70;;;;;;5012642;28;20785;-61
2022/10/17 07:08:51;;;;;;;6.00;2.88;;;12.30;87.90;;;;;;5017537;28;20080;-62
2022/10/17 07:11:19;;;;;;;25.38;4.57;;;12.30;88.00;;;;;;5016016;28;20455;-61
2022/10/17 07:13:45;;;;;;;30.40;4.20;;;12.40;88.20;;;;;;5015808;28;20541;-61
2022/10/17 07:16:12;;;;;;;16.55;3.58;;;12.40;88.40;;;;;;5015802;28;20049;-63
2022/10/17 07:18:38;;;;;;;6.43;3.67;;;12.40;88.50;;;;;;5017033;28;20396;-63
2022/10/17 07:21:04;;;;;;;5.40;3.20;;;12.50;88.80;;;;;;5014784;28;20509;-62
2022/10/17 07:23:30;;;;;;;4.93;3.65;;;12.50;89.00;;;;;;5018022;28;20039;-59
2022/10/17 07:26:00;;;;;;;7.65;3.55;;;12.60;89.10;;;;;;5017190;28;20599;-62
2022/10/17 07:28:27;;;;;;;9.10;3.80;;;12.60;89.20;;;;;;5013967;28;20044;-63
2022/10/17 07:30:52;;;;;;;8.52;3.80;;;12.60;88.90;;;;;;5014955;28;20087;-60
2022/10/17 07:33:18;;;;;;;5.63;3.65;;;12.70;88.80;;;;;;5015157;28;20041;-62
2022/10/17 07:35:43;;;;;;;6.80;4.10;;;12.70;88.80;;;;;;5015199;28;20037;-62
2022/10/17 07:38:09;;;;;;;5.60;3.63;;;12.80;88.80;;;;;;5015036;28;20038;-62
2022/10/17 07:40:34;;;;;;;8.40;4.07;;;12.80;88.80;;;;;;5013518;28;20129;-62
2022/10/17 07:43:00;;;;;;;10.75;4.00;;;12.80;88.90;;;;;;5013196;28;20563;-61
2022/10/17 07:45:26;;;;;;;10.52;4.10;;;12.90;89.50;;;;;;5015186;28;20032;-61
2022/10/17 07:47:57;;;;;;;5.18;3.60;;;12.90;89.00;;;;;;5015846;28;20061;-61
2022/10/17 07:50:23;;;;;;;4.55;3.60;;;13.00;89.30;;;;;;5012655;28;20045;-62
2022/10/17 07:52:49;;;;;;;3.08;2.88;;;13.00;89.30;;;;;;5015720;28;20041;-62
2022/10/17 07:55:15;;;;;;;4.38;3.38;;;13.10;89.70;;;;;;5012833;28;20060;-62
2022/10/17 07:57:40;;;;;;;2.85;2.65;;;13.10;89.90;;;;;;5014987;28;20073;-62
2022/10/17 08:00:07;;;;;;;4.47;2.58;;;13.20;90.00;;;;;;5014815;28;20390;-61
2022/10/17 08:02:33;;;;;;;7.20;2.97;;;13.20;90.10;;;;;;5010110;28;20034;-61
2022/10/17 08:04:58;;;;;;;2.60;2.40;;;13.20;90.10;;;;;;5015756;28;20041;-62
2022/10/17 08:07:24;;;;;;;4.53;2.50;;;13.30;90.20;;;;;;5014334;28;20037;-62
2022/10/17 08:09:49;;;;;;;2.97;2.50;;;13.40;90.30;;;;;;5017207;28;20038;-61
2022/10/17 08:12:15;;;;;;;6.20;2.97;;;13.50;90.40;;;;;;5012922;28;20496;-61
2022/10/17 08:14:42;;;;;;;3.55;3.00;;;13.50;90.40;;;;;;5014102;28;20034;-61
2022/10/17 08:17:08;;;;;;;7.07;2.30;;;13.60;90.40;;;;;;5011047;28;20120;-62
2022/10/17 08:19:33;;;;;;;2.75;2.17;;;13.70;90.60;;;;;;5015389;28;20132;-62
2022/10/17 08:22:00;;;;;;;2.30;2.10;;;13.80;90.70;;;;;;5013358;28;20033;-61
2022/10/17 08:24:26;;;;;;;2.30;2.10;;;13.80;90.70;;;;;;5013190;28;20037;-61
2022/10/17 08:26:52;;;;;;;3.55;2.03;;;13.90;90.60;;;;;;5014438;28;20068;-61
2022/10/17 08:29:18;;;;;;;3.25;2.00;;;14.00;90.60;;;;;;5013207;28;20052;-61
2022/10/17 08:31:44;;;;;;;2.30;2.10;;;14.10;90.50;;;;;;5017388;28;20337;-61
2022/10/17 08:34:10;;;;;;;3.00;2.08;;;14.20;90.60;;;;;;5017247;28;20046;-62
2022/10/17 08:36:35;;;;;;;2.40;2.20;;;14.20;90.60;;;;;;5017074;28;20065;-61
2022/10/17 08:39:01;;;;;;;2.30;2.20;;;14.30;90.50;;;;;;5017070;28;20079;-61
2022/10/17 08:41:46;;;;;;;2.47;2.28;;;14.40;90.50;;;;;;5016322;28;20041;-61
2022/10/17 08:44:20;;;;;;;5.07;2.78;;;14.50;90.70;;;;;;5011160;28;20041;-62
2022/10/17 08:46:48;;;;;;;5.15;4.00;;;14.60;90.50;;;;;;5013905;28;20148;-61
2022/10/17 08:49:33;;;;;;;6.07;3.63;;;14.70;90.40;;;;;;5015818;28;20574;-62
2022/10/17 08:52:14;;;;;;;4.13;3.17;;;14.80;90.60;;;;;;5018048;28;20042;-62
2022/10/17 08:54:47;;;;;;;3.53;3.13;;;14.90;90.40;;;;;;5015749;28;20037;-61
2022/10/17 08:57:14;;;;;;;14.00;5.88;;;15.00;90.30;;;;;;5015058;28;20088;-60
2022/10/17 08:59:42;;;;;;;15.73;4.10;;;15.10;90.20;;;;;;5015417;28;20041;-62
2022/10/17 09:02:13;;;;;;;7.22;3.42;;;15.20;90.20;;;;;;5016828;28;20107;-62
2022/10/17 09:04:44;;;;;;;6.72;3.33;;;15.30;90.30;;;;;;5015031;28;20076;-62
2022/10/17 09:07:35;;;;;;;4.25;3.28;;;15.40;90.20;;;;;;5016998;28;20037;-62
2022/10/17 09:10:16;;;;;;;6.78;3.30;;;15.50;90.30;;;;;;5006118;28;20529;-60
2022/10/17 09:13:12;;;;;;;6.90;2.97;;;15.60;90.00;;;;;;5011586;28;20041;-62
2022/10/17 09:15:57;;;;;;;5.53;2.63;;;15.80;90.00;;;;;;5015775;28;20544;-62
2022/10/17 09:18:25;;;;;;;4.68;2.30;;;15.90;90.30;;;;;;5016310;28;20584;-62
2022/10/17 09:20:57;;;;;;;4.30;2.42;;;16.00;90.40;;;;;;4994811;28;20029;-63
2022/10/17 09:23:31;;;;;;;2.33;2.13;;;16.10;90.40;;;;;;5014084;28;20074;-61
2022/10/17 09:25:59;;;;;;;4.57;2.28;;;16.20;90.50;;;;;;5014034;28;20034;-63
2022/10/17 09:28:37;;;;;;;2.85;2.33;;;16.40;90.40;;;;;;5015134;28;20041;-61
2022/10/17 09:31:23;;;;;;;2.30;2.10;;;16.50;90.40;;;;;;5011693;28;20140;-62
2022/10/17 09:33:51;;;;;;;3.42;2.22;;;16.60;90.30;;;;;;5013160;28;20049;-63
2022/10/17 09:36:37;;;;;;;2.55;2.35;;;16.70;90.10;;;;;;5012183;28;20025;-63
2022/10/17 09:39:21;;;;;;;2.65;2.38;;;16.90;90.30;;;;;;5013219;28;20489;-62
2022/10/17 09:41:51;;;;;;;3.78;2.13;;;17.00;89.70;;;;;;5014509;28;20037;-62
2022/10/17 09:44:23;;;;;;;2.42;2.22;;;17.10;90.10;;;;;;5012517;28;20053;-63
2022/10/17 09:47:15;;;;;;;2.60;2.40;;;17.20;90.10;;;;;;5009945;28;20350;-63
2022/10/17 09:49:43;;;;;;;3.35;2.40;;;17.30;90.00;;;;;;5015387;28;20042;-63
2022/10/17 09:52:17;;;;;;;3.75;2.33;;;17.50;89.70;;;;;;5012446;28;20137;-61
2022/10/17 09:54:50;;;;;;;3.00;2.77;;;17.60;89.40;;;;;;5013200;28;20048;-63
2022/10/17 09:57:17;;;;;;;2.58;2.38;;;17.70;89.30;;;;;;5012316;28;20099;-61
2022/10/17 10:00:05;;;;;;;3.42;1.88;;;17.80;89.10;;;;;;5010503;28;20042;-63
2022/10/17 10:02:32;;;;;;;4.40;1.95;;;17.90;87.70;;;;;;5014905;28;20042;-62
2022/10/17 10:04:57;;;;;;;4.07;2.22;;;18.10;87.60;;;;;;5013439;28;20029;-63
2022/10/17 10:07:25;;;;;;;6.78;1.98;;;18.20;86.80;;;;;;5014349;28;20057;-63
2022/10/17 10:09:52;;;;;;;2.65;2.00;;;18.30;85.90;;;;;;5014325;28;20502;-63
2022/10/17 10:12:25;;;;;;;1.83;1.67;;;18.40;85.70;;;;;;5012940;28;20486;-63
2022/10/17 10:14:51;;;;;;;3.45;1.80;;;18.60;84.60;;;;;;5013778;28;20049;-63
2022/10/17 10:17:40;;;;;;;2.47;1.80;;;18.60;84.60;;;;;;5015462;28;20082;-63
2022/10/17 10:20:28;;;;;;;3.28;1.80;;;18.80;83.20;;;;;;5015953;28;20041;-62
2022/10/17 10:23:13;;;;;;;3.53;1.98;;;18.90;84.10;;;;;;5013296;28;20028;-63
2022/10/17 10:25:50;;;;;;;1.98;1.50;;;19.00;82.20;;;;;;5014989;28;20120;-62
2022/10/17 10:28:16;;;;;;;1.63;1.52;;;19.10;82.90;;;;;;5014541;28;20079;-62
2022/10/17 10:30:47;;;;;;;1.85;1.75;;;19.20;82.50;;;;;;5014849;28;20068;-63
2022/10/17 10:33:13;;;;;;;3.08;1.60;;;19.30;81.20;;;;;;5015583;28;20046;-63
2022/10/17 10:35:38;;;;;;;2.10;1.40;;;19.50;80.50;;;;;;5016289;28;20455;-62
2022/10/17 10:38:14;;;;;;;2.67;1.48;;;19.60;80.30;;;;;;5018689;28;20030;-61
2022/10/17 10:40:54;;;;;;;3.65;1.40;;;19.70;79.40;;;;;;5017466;28;20041;-63
2022/10/17 10:43:39;;;;;;;1.95;1.42;;;19.80;78.60;;;;;;5012074;28;20030;-63
2022/10/17 10:46:26;;;;;;;1.55;1.45;;;19.90;78.40;;;;;;5018378;28;20033;-63
2022/10/17 10:49:00;;;;;;;1.83;1.52;;;20.00;78.80;;;;;;5017257;28;20030;-64
2022/10/17 10:51:39;;;;;;;4.35;1.75;;;20.20;76.60;;;;;;5016709;28;20087;-63
2022/10/17 10:54:12;;;;;;;1.70;1.58;;;20.20;76.10;;;;;;5018921;28;20558;-63
2022/10/17 10:56:52;;;;;;;3.28;1.67;;;20.30;76.40;;;;;;5017871;28;20026;-61
2022/10/17 10:59:52;;;;;;;2.42;1.40;;;20.40;76.10;;;;;;5016734;28;21105;-63
2022/10/17 11:02:48;;;;;;;1.77;1.55;;;20.40;75.70;;;;;;5017334;28;20040;-63
2022/10/17 11:05:22;;;;;;;1.88;1.50;;;20.50;75.50;;;;;;5014947;28;20494;-64
2022/10/17 11:07:55;;;;;;;1.90;1.30;;;20.60;76.10;;;;;;5016397;28;20871;-64
2022/10/17 11:10:32;;;;;;;3.85;1.60;;;20.60;75.60;;;;;;5013409;28;20087;-64
2022/10/17 11:13:36;;;;;;;2.78;1.40;;;20.70;75.40;;;;;;5012538;28;20446;-64
2022/10/17 11:16:19;;;;;;;1.50;1.20;;;20.90;75.00;;;;;;4975871;28;20033;-64
2022/10/17 11:18:51;;;;;;;1.67;1.45;;;20.90;75.40;;;;;;5012604;28;20080;-64
2022/10/17 11:21:27;;;;;;;1.77;1.30;;;21.10;75.10;;;;;;5015010;28;20064;-64
2022/10/17 11:24:06;;;;;;;1.30;1.20;;;21.20;74.30;;;;;;5016988;28;20045;-64
2022/10/17 11:26:38;;;;;;;1.60;1.48;;;21.30;74.40;;;;;;5016046;28;20033;-64
2022/10/17 11:29:08;;;;;;;3.13;1.30;;;21.40;73.70;;;;;;5016192;28;20045;-64
2022/10/17 11:31:39;;;;;;;1.40;1.30;;;21.50;73.30;;;;;;5016151;28;20037;-63
2022/10/17 11:34:13;;;;;;;2.65;1.25;;;21.60;72.80;;;;;;5012337;28;20037;-64
2022/10/17 11:36:42;;;;;;;2.57;1.30;;;21.60;72.40;;;;;;5010923;28;20125;-64
2022/10/17 11:39:36;;;;;;;1.60;1.50;;;21.70;72.60;;;;;;5016281;28;20045;-64
2022/10/17 11:42:07;;;;;;;2.20;1.35;;;21.80;70.90;;;;;;5009854;28;20060;-64
2022/10/17 11:44:39;;;;;;;1.52;1.30;;;21.90;70.90;;;;;;5013287;28;20088;-63
2022/10/17 11:47:44;;;;;;;1.48;1.38;;;22.00;70.50;;;;;;5012712;28;20034;-64
2022/10/17 11:50:29;;;;;;;1.77;1.50;;;22.10;69.50;;;;;;5005195;28;20493;-64
2022/10/17 11:53:03;;;;;;;5.03;1.38;;;22.20;71.10;;;;;;5017351;28;20034;-64
2022/10/17 11:55:30;;;;;;;1.15;1.05;;;22.30;70.90;;;;;;5015466;28;20065;-64
2022/10/17 11:58:13;;;;;;;1.77;1.25;;;22.30;71.50;;;;;;5015011;28;20041;-64
2022/10/17 12:01:14;;;;;;;2.97;1.48;;;22.50;70.70;;;;;;5015220;28;20057;-64
2022/10/17 12:04:00;;;;;;;2.45;1.33;;;22.50;69.60;;;;;;5014279;28;20029;-64
2022/10/17 12:06:44;;;;;;;2.65;1.15;;;22.60;69.60;;;;;;5013735;28;20036;-65
2022/10/17 12:09:18;;;;;;;4.45;1.27;;;22.70;69.30;;;;;;5014757;28;20394;-63
2022/10/17 12:11:52;;;;;;;1.40;1.30;;;22.70;69.00;;;;;;5012306;28;20389;-64
2022/10/17 12:14:37;;;;;;;1.15;1.10;;;22.80;69.20;;;;;;5018279;28;20068;-64
2022/10/17 12:17:05;;;;;;;2.85;1.20;;;22.90;67.70;;;;;;5016671;28;20064;-64
2022/10/17 12:19:36;;;;;;;3.00;1.20;;;22.90;68.40;;;;;;5016259;28;20108;-64
2022/10/17 12:22:20;;;;;;;2.08;1.20;;;22.90;67.90;;;;;;5014411;28;20576;-64
2022/10/17 12:24:56;;;;;;;3.65;1.15;;;22.90;67.80;;;;;;5014581;28;20116;-64
2022/10/17 12:27:30;;;;;;;2.00;1.30;;;22.90;67.40;;;;;;5015670;28;20412;-64
2022/10/17 12:30:12;;;;;;;1.15;1.05;;;23.00;68.20;;;;;;5015591;28;20050;-64
2022/10/17 12:32:52;;;;;;;2.00;1.60;;;23.10;66.20;;;;;;5015081;28;20037;-64
2022/10/17 12:35:23;;;;;;;1.60;1.42;;;23.10;67.30;;;;;;5011854;28;20831;-63
2022/10/17 12:37:51;;;;;;;1.80;1.45;;;23.20;67.80;;;;;;5015644;28;20087;-64
2022/10/17 12:40:35;;;;;;;2.60;1.55;;;23.20;68.60;;;;;;5016511;28;20054;-64
2022/10/17 12:43:14;;;;;;;3.83;1.52;;;23.20;67.70;;;;;;5015468;28;20060;-63
2022/10/17 12:46:12;;;;;;;1.75;1.30;;;23.30;68.00;;;;;;5013978;28;20153;-64
2022/10/17 12:48:38;;;;;;;1.40;1.30;;;23.30;65.80;;;;;;5013791;28;20406;-63
2022/10/17 12:51:04;;;;;;;2.85;1.20;;;23.40;66.80;;;;;;5015694;28;20050;-63
2022/10/17 12:53:48;;;;;;;1.65;1.42;;;23.40;67.10;;;;;;5014717;28;20116;-63
2022/10/17 12:56:41;;;;;;;1.83;1.42;;;23.40;65.50;;;;;;5012699;28;20046;-64
2022/10/17 12:59:22;;;;;;;3.13;1.25;;;23.40;65.80;;;;;;4999709;28;20044;-61
2022/10/17 13:01:54;;;;;;;1.60;1.30;;;23.50;65.80;;;;;;5013866;28;20033;-64
2022/10/17 13:04:20;;;;;;;4.00;1.40;;;23.50;66.10;;;;;;5019104;28;20037;-63